sensor_id;sensor_type;location;lat;lon;timestamp;P1;durP1;ratioP1;P2;durP2;ratioP2
20383;SDS011;46458;50.966;7.002;2023-08-06T00:00:12;3.95;;;3.17;;
20383;SDS011;46458;50.966;7.002;2023-08-06T00:02:42;4.68;;;3.10;;
20383;SDS011;46458;50.966;7.002;2023-08-06T00:05:13;3.30;;;3.00;;
20383;SDS011;46458;50.966;7.002;2023-08-06T00:07:45;3.35;;;2.78;;
20383;SDS011;46458;50.966;7.002;2023-08-06T00:10:16;4.63;;;2.97;;
20383;SDS011;46458;50.966;7.002;2023-08-06T00:12:45;3.72;;;3.10;;
20383;SDS011;46458;50.966;7.002;2023-08-06T00:15:14;4.35;;;3.08;;
20383;SDS011;46458;50.966;7.002;2023-08-06T00:17:46;3.90;;;3.47;;
20383;SDS011;46458;50.966;7.002;2023-08-06T00:20:17;4.18;;;3.10;;
20383;SDS011;46458;50.966;7.002;2023-08-06T00:22:46;5.63;;;3.22;;
20383;SDS011;46458;50.966;7.002;2023-08-06T00:25:15;5.10;;;3.80;;
20383;SDS011;46458;50.966;7.002;2023-08-06T00:27:44;4.57;;;3.40;;
20383;SDS011;46458;50.966;7.002;2023-08-06T00:30:17;4.60;;;3.40;;
20383;SDS011;46458;50.966;7.002;2023-08-06T00:32:46;3.87;;;2.87;;
20383;SDS011;46458;50.966;7.002;2023-08-06T00:35:15;4.80;;;3.80;;
20383;SDS011;46458;50.966;7.002;2023-08-06T00:37:46;6.30;;;3.70;;
20383;SDS011;46458;50.966;7.002;2023-08-06T00:40:15;4.90;;;3.90;;
20383;SDS011;46458;50.966;7.002;2023-08-06T00:42:44;4.40;;;3.40;;
20383;SDS011;46458;50.966;7.002;2023-08-06T00:45:13;5.43;;;3.20;;
20383;SDS011;46458;50.966;7.002;2023-08-06T00:47:42;4.37;;;3.33;;
20383;SDS011;46458;50.966;7.002;2023-08-06T00:50:14;5.40;;;3.37;;
20383;SDS011;46458;50.966;7.002;2023-08-06T00:52:45;4.37;;;3.40;;
20383;SDS011;46458;50.966;7.002;2023-08-06T00:55:14;3.80;;;3.23;;
20383;SDS011;46458;50.966;7.002;2023-08-06T00:57:46;8.00;;;3.50;;
20383;SDS011;46458;50.966;7.002;2023-08-06T01:00:16;4.93;;;3.60;;
20383;SDS011;46458;50.966;7.002;2023-08-06T01:02:45;4.75;;;3.70;;
20383;SDS011;46458;50.966;7.002;2023-08-06T01:05:14;6.53;;;3.27;;
20383;SDS011;46458;50.966;7.002;2023-08-06T01:07:48;4.80;;;3.17;;
20383;SDS011;46458;50.966;7.002;2023-08-06T01:10:29;4.10;;;3.25;;
20383;SDS011;46458;50.966;7.002;2023-08-06T01:13:08;6.47;;;3.60;;
20383;SDS011;46458;50.966;7.002;2023-08-06T01:15:46;5.05;;;3.50;;
20383;SDS011;46458;50.966;7.002;2023-08-06T01:18:17;5.50;;;3.43;;
20383;SDS011;46458;50.966;7.002;2023-08-06T01:20:51;4.20;;;3.40;;
20383;SDS011;46458;50.966;7.002;2023-08-06T01:23:19;3.67;;;3.33;;
20383;SDS011;46458;50.966;7.002;2023-08-06T01:25:52;3.90;;;3.40;;
20383;SDS011;46458;50.966;7.002;2023-08-06T01:28:27;5.70;;;3.67;;
20383;SDS011;46458;50.966;7.002;2023-08-06T01:31:02;4.72;;;3.63;;
20383;SDS011;46458;50.966;7.002;2023-08-06T01:33:35;5.13;;;3.53;;
20383;SDS011;46458;50.966;7.002;2023-08-06T01:36:15;6.03;;;3.90;;
20383;SDS011;46458;50.966;7.002;2023-08-06T01:38:52;4.55;;;3.42;;
20383;SDS011;46458;50.966;7.002;2023-08-06T01:41:23;4.82;;;3.17;;
20383;SDS011;46458;50.966;7.002;2023-08-06T01:43:56;3.67;;;3.38;;
20383;SDS011;46458;50.966;7.002;2023-08-06T01:46:25;5.00;;;3.97;;
20383;SDS011;46458;50.966;7.002;2023-08-06T01:48:54;5.50;;;3.80;;
20383;SDS011;46458;50.966;7.002;2023-08-06T01:51:25;6.50;;;4.00;;
20383;SDS011;46458;50.966;7.002;2023-08-06T01:53:54;4.28;;;3.58;;
20383;SDS011;46458;50.966;7.002;2023-08-06T01:56:23;7.30;;;3.75;;
20383;SDS011;46458;50.966;7.002;2023-08-06T01:58:49;4.07;;;3.67;;
20383;SDS011;46458;50.966;7.002;2023-08-06T02:01:18;3.70;;;3.30;;
20383;SDS011;46458;50.966;7.002;2023-08-06T02:03:49;5.27;;;3.63;;
20383;SDS011;46458;50.966;7.002;2023-08-06T02:06:18;4.27;;;3.57;;
20383;SDS011;46458;50.966;7.002;2023-08-06T02:08:50;5.20;;;3.47;;
20383;SDS011;46458;50.966;7.002;2023-08-06T02:11:18;5.35;;;3.70;;
20383;SDS011;46458;50.966;7.002;2023-08-06T02:13:47;7.30;;;3.43;;
20383;SDS011;46458;50.966;7.002;2023-08-06T02:16:18;4.43;;;3.40;;
20383;SDS011;46458;50.966;7.002;2023-08-06T02:18:47;4.40;;;3.20;;
20383;SDS011;46458;50.966;7.002;2023-08-06T02:21:24;4.15;;;3.40;;
20383;SDS011;46458;50.966;7.002;2023-08-06T02:23:56;4.65;;;3.20;;
20383;SDS011;46458;50.966;7.002;2023-08-06T02:26:33;5.68;;;3.20;;
20383;SDS011;46458;50.966;7.002;2023-08-06T02:29:02;4.68;;;3.60;;
20383;SDS011;46458;50.966;7.002;2023-08-06T02:31:31;5.28;;;3.55;;
20383;SDS011;46458;50.966;7.002;2023-08-06T02:34:09;4.35;;;2.95;;
20383;SDS011;46458;50.966;7.002;2023-08-06T02:36:37;4.83;;;3.23;;
20383;SDS011;46458;50.966;7.002;2023-08-06T02:39:11;4.80;;;3.20;;
20383;SDS011;46458;50.966;7.002;2023-08-06T02:41:40;3.40;;;2.90;;
20383;SDS011;46458;50.966;7.002;2023-08-06T02:44:08;4.03;;;3.30;;
20383;SDS011;46458;50.966;7.002;2023-08-06T02:46:37;4.13;;;2.97;;
20383;SDS011;46458;50.966;7.002;2023-08-06T02:49:06;3.23;;;2.73;;
20383;SDS011;46458;50.966;7.002;2023-08-06T02:51:35;3.53;;;3.07;;
20383;SDS011;46458;50.966;7.002;2023-08-06T02:54:04;3.88;;;2.92;;
20383;SDS011;46458;50.966;7.002;2023-08-06T02:56:37;4.85;;;2.83;;
20383;SDS011;46458;50.966;7.002;2023-08-06T02:59:13;3.78;;;2.90;;
20383;SDS011;46458;50.966;7.002;2023-08-06T03:02:05;4.97;;;3.05;;
20383;SDS011;46458;50.966;7.002;2023-08-06T03:04:43;4.18;;;2.80;;
20383;SDS011;46458;50.966;7.002;2023-08-06T03:07:12;5.63;;;3.03;;
20383;SDS011;46458;50.966;7.002;2023-08-06T03:09:50;4.23;;;2.93;;
20383;SDS011;46458;50.966;7.002;2023-08-06T03:12:22;4.20;;;3.03;;
20383;SDS011;46458;50.966;7.002;2023-08-06T03:14:52;4.13;;;3.23;;
20383;SDS011;46458;50.966;7.002;2023-08-06T03:17:21;4.77;;;3.03;;
20383;SDS011;46458;50.966;7.002;2023-08-06T03:19:55;4.03;;;2.73;;
20383;SDS011;46458;50.966;7.002;2023-08-06T03:22:25;5.77;;;3.23;;
20383;SDS011;46458;50.966;7.002;2023-08-06T03:24:57;3.83;;;2.70;;
20383;SDS011;46458;50.966;7.002;2023-08-06T03:27:29;4.45;;;2.50;;
20383;SDS011;46458;50.966;7.002;2023-08-06T03:29:58;4.90;;;2.97;;
20383;SDS011;46458;50.966;7.002;2023-08-06T03:32:30;3.78;;;3.00;;
20383;SDS011;46458;50.966;7.002;2023-08-06T03:34:59;3.93;;;2.80;;
20383;SDS011;46458;50.966;7.002;2023-08-06T03:37:29;6.13;;;3.17;;
20383;SDS011;46458;50.966;7.002;2023-08-06T03:39:58;4.07;;;3.03;;
20383;SDS011;46458;50.966;7.002;2023-08-06T03:42:31;3.67;;;3.03;;
20383;SDS011;46458;50.966;7.002;2023-08-06T03:45:03;3.95;;;3.00;;
20383;SDS011;46458;50.966;7.002;2023-08-06T03:47:33;5.10;;;2.75;;
20383;SDS011;46458;50.966;7.002;2023-08-06T03:50:06;4.63;;;3.00;;
20383;SDS011;46458;50.966;7.002;2023-08-06T03:52:35;4.47;;;2.97;;
20383;SDS011;46458;50.966;7.002;2023-08-06T03:55:07;3.45;;;3.10;;
20383;SDS011;46458;50.966;7.002;2023-08-06T03:57:40;4.77;;;3.13;;
20383;SDS011;46458;50.966;7.002;2023-08-06T04:00:09;3.77;;;3.33;;
20383;SDS011;46458;50.966;7.002;2023-08-06T04:02:44;4.40;;;3.13;;
20383;SDS011;46458;50.966;7.002;2023-08-06T04:05:14;5.93;;;2.97;;
20383;SDS011;46458;50.966;7.002;2023-08-06T04:07:44;5.27;;;3.17;;
20383;SDS011;46458;50.966;7.002;2023-08-06T04:10:17;5.80;;;2.90;;
20383;SDS011;46458;50.966;7.002;2023-08-06T04:12:48;6.23;;;3.10;;
20383;SDS011;46458;50.966;7.002;2023-08-06T04:15:19;3.60;;;3.17;;
20383;SDS011;46458;50.966;7.002;2023-08-06T04:17:48;5.30;;;2.90;;
20383;SDS011;46458;50.966;7.002;2023-08-06T04:20:16;4.10;;;3.07;;
20383;SDS011;46458;50.966;7.002;2023-08-06T04:22:45;4.70;;;3.10;;
20383;SDS011;46458;50.966;7.002;2023-08-06T04:25:14;3.73;;;2.83;;
20383;SDS011;46458;50.966;7.002;2023-08-06T04:27:48;4.68;;;2.47;;
20383;SDS011;46458;50.966;7.002;2023-08-06T04:30:18;2.78;;;2.35;;
20383;SDS011;46458;50.966;7.002;2023-08-06T04:32:49;4.20;;;3.03;;
20383;SDS011;46458;50.966;7.002;2023-08-06T04:35:18;5.03;;;2.65;;
20383;SDS011;46458;50.966;7.002;2023-08-06T04:37:47;5.13;;;2.67;;
20383;SDS011;46458;50.966;7.002;2023-08-06T04:40:16;8.68;;;4.40;;
20383;SDS011;46458;50.966;7.002;2023-08-06T04:42:50;3.65;;;2.72;;
20383;SDS011;46458;50.966;7.002;2023-08-06T04:45:19;5.20;;;2.80;;
20383;SDS011;46458;50.966;7.002;2023-08-06T04:47:49;2.92;;;2.20;;
20383;SDS011;46458;50.966;7.002;2023-08-06T04:50:18;3.78;;;2.60;;
20383;SDS011;46458;50.966;7.002;2023-08-06T04:52:47;5.30;;;2.90;;
20383;SDS011;46458;50.966;7.002;2023-08-06T04:55:19;4.53;;;2.90;;
20383;SDS011;46458;50.966;7.002;2023-08-06T04:57:51;4.25;;;2.97;;
20383;SDS011;46458;50.966;7.002;2023-08-06T05:00:20;4.88;;;2.42;;
20383;SDS011;46458;50.966;7.002;2023-08-06T05:02:48;4.25;;;2.92;;
20383;SDS011;46458;50.966;7.002;2023-08-06T05:05:19;4.45;;;2.90;;
20383;SDS011;46458;50.966;7.002;2023-08-06T05:07:48;4.97;;;2.45;;
20383;SDS011;46458;50.966;7.002;2023-08-06T05:10:17;4.03;;;2.70;;
20383;SDS011;46458;50.966;7.002;2023-08-06T05:12:52;4.20;;;2.30;;
20383;SDS011;46458;50.966;7.002;2023-08-06T05:15:21;4.03;;;2.50;;
20383;SDS011;46458;50.966;7.002;2023-08-06T05:17:53;3.88;;;2.42;;
20383;SDS011;46458;50.966;7.002;2023-08-06T05:20:22;4.90;;;3.00;;
20383;SDS011;46458;50.966;7.002;2023-08-06T05:22:50;4.75;;;2.95;;
20383;SDS011;46458;50.966;7.002;2023-08-06T05:25:19;5.18;;;2.63;;
20383;SDS011;46458;50.966;7.002;2023-08-06T05:27:48;5.25;;;2.92;;
20383;SDS011;46458;50.966;7.002;2023-08-06T05:30:25;4.07;;;2.50;;
20383;SDS011;46458;50.966;7.002;2023-08-06T05:32:57;4.45;;;2.63;;
20383;SDS011;46458;50.966;7.002;2023-08-06T05:35:26;4.35;;;2.50;;
20383;SDS011;46458;50.966;7.002;2023-08-06T05:37:54;3.95;;;2.70;;
20383;SDS011;46458;50.966;7.002;2023-08-06T05:40:23;4.45;;;2.38;;
20383;SDS011;46458;50.966;7.002;2023-08-06T05:42:55;5.60;;;2.50;;
20383;SDS011;46458;50.966;7.002;2023-08-06T05:45:26;4.28;;;2.50;;
20383;SDS011;46458;50.966;7.002;2023-08-06T05:47:55;4.55;;;3.00;;
20383;SDS011;46458;50.966;7.002;2023-08-06T05:50:24;3.08;;;2.70;;
20383;SDS011;46458;50.966;7.002;2023-08-06T05:52:53;4.28;;;2.53;;
20383;SDS011;46458;50.966;7.002;2023-08-06T05:55:22;3.03;;;2.58;;
20383;SDS011;46458;50.966;7.002;2023-08-06T05:57:51;2.78;;;2.50;;
20383;SDS011;46458;50.966;7.002;2023-08-06T06:00:22;3.17;;;2.22;;
20383;SDS011;46458;50.966;7.002;2023-08-06T06:02:51;8.40;;;2.70;;
20383;SDS011;46458;50.966;7.002;2023-08-06T06:05:23;7.32;;;3.08;;
20383;SDS011;46458;50.966;7.002;2023-08-06T06:07:55;2.80;;;2.22;;
20383;SDS011;46458;50.966;7.002;2023-08-06T06:10:26;3.55;;;2.30;;
20383;SDS011;46458;50.966;7.002;2023-08-06T06:12:56;6.70;;;2.80;;
20383;SDS011;46458;50.966;7.002;2023-08-06T06:15:30;4.15;;;2.60;;
20383;SDS011;46458;50.966;7.002;2023-08-06T06:17:58;4.32;;;2.90;;
20383;SDS011;46458;50.966;7.002;2023-08-06T06:20:27;2.78;;;2.13;;
20383;SDS011;46458;50.966;7.002;2023-08-06T06:22:57;7.60;;;2.33;;
20383;SDS011;46458;50.966;7.002;2023-08-06T06:25:28;4.60;;;2.65;;
20383;SDS011;46458;50.966;7.002;2023-08-06T06:28:09;2.78;;;2.00;;
20383;SDS011;46458;50.966;7.002;2023-08-06T06:30:43;2.92;;;2.35;;
20383;SDS011;46458;50.966;7.002;2023-08-06T06:33:12;5.60;;;2.47;;
20383;SDS011;46458;50.966;7.002;2023-08-06T06:35:41;4.03;;;2.65;;
20383;SDS011;46458;50.966;7.002;2023-08-06T06:38:09;3.90;;;2.85;;
20383;SDS011;46458;50.966;7.002;2023-08-06T06:40:41;4.32;;;2.50;;
20383;SDS011;46458;50.966;7.002;2023-08-06T06:43:10;4.60;;;2.80;;
20383;SDS011;46458;50.966;7.002;2023-08-06T06:45:41;3.08;;;2.50;;
20383;SDS011;46458;50.966;7.002;2023-08-06T06:48:10;4.50;;;2.33;;
20383;SDS011;46458;50.966;7.002;2023-08-06T06:50:40;6.25;;;2.60;;
20383;SDS011;46458;50.966;7.002;2023-08-06T06:53:08;3.33;;;2.55;;
20383;SDS011;46458;50.966;7.002;2023-08-06T06:55:37;2.83;;;2.45;;
20383;SDS011;46458;50.966;7.002;2023-08-06T06:58:06;12.13;;;7.22;;
20383;SDS011;46458;50.966;7.002;2023-08-06T07:00:35;2.60;;;2.30;;
20383;SDS011;46458;50.966;7.002;2023-08-06T07:03:07;3.05;;;2.67;;
20383;SDS011;46458;50.966;7.002;2023-08-06T07:05:36;1.80;;;1.70;;
20383;SDS011;46458;50.966;7.002;2023-08-06T07:08:05;2.65;;;1.55;;
20383;SDS011;46458;50.966;7.002;2023-08-06T07:10:33;2.30;;;1.50;;
20383;SDS011;46458;50.966;7.002;2023-08-06T07:13:02;2.25;;;1.20;;
20383;SDS011;46458;50.966;7.002;2023-08-06T07:15:31;3.67;;;2.70;;
20383;SDS011;46458;50.966;7.002;2023-08-06T07:18:00;1.88;;;1.60;;
20383;SDS011;46458;50.966;7.002;2023-08-06T07:20:31;2.25;;;1.50;;
20383;SDS011;46458;50.966;7.002;2023-08-06T07:23:03;1.70;;;1.35;;
20383;SDS011;46458;50.966;7.002;2023-08-06T07:25:41;1.30;;;0.93;;
20383;SDS011;46458;50.966;7.002;2023-08-06T07:28:12;2.28;;;1.38;;
20383;SDS011;46458;50.966;7.002;2023-08-06T07:30:41;1.58;;;1.00;;
20383;SDS011;46458;50.966;7.002;2023-08-06T07:33:11;1.10;;;1.00;;
20383;SDS011;46458;50.966;7.002;2023-08-06T07:35:43;1.42;;;0.95;;
20383;SDS011;46458;50.966;7.002;2023-08-06T07:38:12;0.98;;;0.90;;
20383;SDS011;46458;50.966;7.002;2023-08-06T07:40:40;1.20;;;0.95;;
20383;SDS011;46458;50.966;7.002;2023-08-06T07:43:10;1.77;;;1.20;;
20383;SDS011;46458;50.966;7.002;2023-08-06T07:45:39;1.83;;;1.20;;
20383;SDS011;46458;50.966;7.002;2023-08-06T07:48:07;1.10;;;1.00;;
20383;SDS011;46458;50.966;7.002;2023-08-06T07:50:39;2.25;;;1.20;;
20383;SDS011;46458;50.966;7.002;2023-08-06T07:53:15;1.40;;;1.30;;
20383;SDS011;46458;50.966;7.002;2023-08-06T07:55:48;1.30;;;1.10;;
20383;SDS011;46458;50.966;7.002;2023-08-06T07:58:23;1.55;;;0.90;;
20383;SDS011;46458;50.966;7.002;2023-08-06T08:00:54;1.70;;;1.20;;
20383;SDS011;46458;50.966;7.002;2023-08-06T08:03:23;1.20;;;0.90;;
20383;SDS011;46458;50.966;7.002;2023-08-06T08:05:56;1.85;;;1.00;;
20383;SDS011;46458;50.966;7.002;2023-08-06T08:08:25;1.17;;;1.08;;
20383;SDS011;46458;50.966;7.002;2023-08-06T08:10:54;1.52;;;1.00;;
20383;SDS011;46458;50.966;7.002;2023-08-06T08:13:24;1.27;;;0.82;;
20383;SDS011;46458;50.966;7.002;2023-08-06T08:15:56;2.10;;;1.05;;
20383;SDS011;46458;50.966;7.002;2023-08-06T08:18:26;1.50;;;1.40;;
20383;SDS011;46458;50.966;7.002;2023-08-06T08:20:59;1.75;;;1.30;;
20383;SDS011;46458;50.966;7.002;2023-08-06T08:23:27;1.55;;;0.90;;
20383;SDS011;46458;50.966;7.002;2023-08-06T08:25:59;1.10;;;1.00;;
20383;SDS011;46458;50.966;7.002;2023-08-06T08:28:29;1.10;;;1.02;;
20383;SDS011;46458;50.966;7.002;2023-08-06T08:30:58;0.70;;;0.70;;
20383;SDS011;46458;50.966;7.002;2023-08-06T08:33:26;1.02;;;0.90;;
20383;SDS011;46458;50.966;7.002;2023-08-06T08:35:55;0.88;;;0.88;;
20383;SDS011;46458;50.966;7.002;2023-08-06T08:38:27;1.55;;;0.90;;
20383;SDS011;46458;50.966;7.002;2023-08-06T08:40:56;0.90;;;0.90;;
20383;SDS011;46458;50.966;7.002;2023-08-06T08:43:25;1.25;;;1.00;;
20383;SDS011;46458;50.966;7.002;2023-08-06T08:45:55;1.27;;;1.00;;
20383;SDS011;46458;50.966;7.002;2023-08-06T08:48:24;3.05;;;1.00;;
20383;SDS011;46458;50.966;7.002;2023-08-06T08:51:05;1.48;;;1.20;;
20383;SDS011;46458;50.966;7.002;2023-08-06T08:53:36;1.20;;;1.10;;
20383;SDS011;46458;50.966;7.002;2023-08-06T08:56:07;1.20;;;1.10;;
20383;SDS011;46458;50.966;7.002;2023-08-06T08:58:37;1.70;;;1.40;;
20383;SDS011;46458;50.966;7.002;2023-08-06T09:01:05;1.45;;;1.35;;
20383;SDS011;46458;50.966;7.002;2023-08-06T09:03:36;1.13;;;1.10;;
20383;SDS011;46458;50.966;7.002;2023-08-06T09:06:07;1.48;;;1.02;;
20383;SDS011;46458;50.966;7.002;2023-08-06T09:08:41;1.30;;;1.20;;
20383;SDS011;46458;50.966;7.002;2023-08-06T09:11:15;1.17;;;1.08;;
20383;SDS011;46458;50.966;7.002;2023-08-06T09:13:45;1.92;;;1.27;;
20383;SDS011;46458;50.966;7.002;2023-08-06T09:16:16;1.98;;;1.27;;
20383;SDS011;46458;50.966;7.002;2023-08-06T09:18:44;2.05;;;1.55;;
20383;SDS011;46458;50.966;7.002;2023-08-06T09:21:16;1.75;;;1.20;;
20383;SDS011;46458;50.966;7.002;2023-08-06T09:23:45;1.98;;;1.88;;
20383;SDS011;46458;50.966;7.002;2023-08-06T09:26:14;2.35;;;2.15;;
20383;SDS011;46458;50.966;7.002;2023-08-06T09:28:42;2.83;;;2.53;;
20383;SDS011;46458;50.966;7.002;2023-08-06T09:31:11;2.95;;;2.75;;
20383;SDS011;46458;50.966;7.002;2023-08-06T09:33:40;2.95;;;2.75;;
20383;SDS011;46458;50.966;7.002;2023-08-06T09:36:11;3.40;;;3.10;;
20383;SDS011;46458;50.966;7.002;2023-08-06T09:38:42;3.75;;;3.35;;
20383;SDS011;46458;50.966;7.002;2023-08-06T09:41:15;3.88;;;3.47;;
20383;SDS011;46458;50.966;7.002;2023-08-06T09:43:55;3.92;;;3.63;;
20383;SDS011;46458;50.966;7.002;2023-08-06T09:46:24;4.60;;;4.20;;
20383;SDS011;46458;50.966;7.002;2023-08-06T09:48:53;4.50;;;4.07;;
20383;SDS011;46458;50.966;7.002;2023-08-06T09:51:23;4.00;;;3.63;;
20383;SDS011;46458;50.966;7.002;2023-08-06T09:53:54;3.80;;;3.50;;
20383;SDS011;46458;50.966;7.002;2023-08-06T09:56:23;5.15;;;4.03;;
20383;SDS011;46458;50.966;7.002;2023-08-06T09:58:52;5.18;;;4.20;;
20383;SDS011;46458;50.966;7.002;2023-08-06T10:01:22;5.32;;;4.75;;
20383;SDS011;46458;50.966;7.002;2023-08-06T10:03:51;4.70;;;4.30;;
20383;SDS011;46458;50.966;7.002;2023-08-06T10:06:21;5.03;;;4.63;;
20383;SDS011;46458;50.966;7.002;2023-08-06T10:08:54;4.95;;;4.18;;
20383;SDS011;46458;50.966;7.002;2023-08-06T10:11:24;5.00;;;4.50;;
20383;SDS011;46458;50.966;7.002;2023-08-06T10:13:54;4.28;;;3.88;;
20383;SDS011;46458;50.966;7.002;2023-08-06T10:16:26;1.45;;;1.35;;
20383;SDS011;46458;50.966;7.002;2023-08-06T10:18:56;2.03;;;1.60;;
20383;SDS011;46458;50.966;7.002;2023-08-06T10:21:25;2.08;;;1.80;;
20383;SDS011;46458;50.966;7.002;2023-08-06T10:23:58;1.48;;;0.80;;
20383;SDS011;46458;50.966;7.002;2023-08-06T10:26:28;0.60;;;0.60;;
20383;SDS011;46458;50.966;7.002;2023-08-06T10:28:58;0.97;;;0.43;;
20383;SDS011;46458;50.966;7.002;2023-08-06T10:34:23;0.80;;;0.70;;
20383;SDS011;46458;50.966;7.002;2023-08-06T10:36:53;0.70;;;0.67;;
20383;SDS011;46458;50.966;7.002;2023-08-06T10:39:25;0.50;;;0.50;;
20383;SDS011;46458;50.966;7.002;2023-08-06T10:41:57;0.93;;;0.50;;
20383;SDS011;46458;50.966;7.002;2023-08-06T10:44:26;1.10;;;0.73;;
20383;SDS011;46458;50.966;7.002;2023-08-06T10:46:55;1.23;;;1.00;;
20383;SDS011;46458;50.966;7.002;2023-08-06T10:49:23;1.37;;;1.03;;
20383;SDS011;46458;50.966;7.002;2023-08-06T10:51:52;1.47;;;1.00;;
20383;SDS011;46458;50.966;7.002;2023-08-06T10:54:23;1.43;;;0.93;;
20383;SDS011;46458;50.966;7.002;2023-08-06T10:56:55;1.80;;;1.20;;
20383;SDS011;46458;50.966;7.002;2023-08-06T10:59:23;1.17;;;1.00;;
20383;SDS011;46458;50.966;7.002;2023-08-06T11:01:52;1.60;;;1.20;;
20383;SDS011;46458;50.966;7.002;2023-08-06T11:04:30;1.80;;;1.30;;
20383;SDS011;46458;50.966;7.002;2023-08-06T11:07:00;2.60;;;1.40;;
20383;SDS011;46458;50.966;7.002;2023-08-06T11:09:31;2.83;;;1.70;;
20383;SDS011;46458;50.966;7.002;2023-08-06T11:12:00;3.13;;;1.90;;
20383;SDS011;46458;50.966;7.002;2023-08-06T11:14:30;2.73;;;1.80;;
20383;SDS011;46458;50.966;7.002;2023-08-06T11:16:59;2.33;;;2.00;;
20383;SDS011;46458;50.966;7.002;2023-08-06T11:19:28;3.93;;;2.00;;
20383;SDS011;46458;50.966;7.002;2023-08-06T11:21:57;3.63;;;1.90;;
20383;SDS011;46458;50.966;7.002;2023-08-06T11:24:31;4.13;;;2.27;;
20383;SDS011;46458;50.966;7.002;2023-08-06T11:26:59;4.17;;;2.30;;
20383;SDS011;46458;50.966;7.002;2023-08-06T11:29:28;3.70;;;2.33;;
20383;SDS011;46458;50.966;7.002;2023-08-06T11:32:02;3.33;;;2.53;;
20383;SDS011;46458;50.966;7.002;2023-08-06T11:34:32;5.40;;;2.67;;
20383;SDS011;46458;50.966;7.002;2023-08-06T11:37:02;4.87;;;2.53;;
20383;SDS011;46458;50.966;7.002;2023-08-06T11:39:38;6.90;;;3.20;;
20383;SDS011;46458;50.966;7.002;2023-08-06T11:42:12;5.07;;;2.90;;
20383;SDS011;46458;50.966;7.002;2023-08-06T11:44:41;3.67;;;2.90;;
20383;SDS011;46458;50.966;7.002;2023-08-06T11:47:12;5.83;;;3.03;;
20383;SDS011;46458;50.966;7.002;2023-08-06T11:49:44;6.03;;;3.03;;
20383;SDS011;46458;50.966;7.002;2023-08-06T11:52:15;7.87;;;3.07;;
20383;SDS011;46458;50.966;7.002;2023-08-06T11:54:59;3.77;;;2.50;;
20383;SDS011;46458;50.966;7.002;2023-08-06T11:57:33;4.27;;;2.60;;
20383;SDS011;46458;50.966;7.002;2023-08-06T12:00:03;3.13;;;2.47;;
20383;SDS011;46458;50.966;7.002;2023-08-06T12:02:43;6.20;;;2.17;;
20383;SDS011;46458;50.966;7.002;2023-08-06T12:05:14;3.20;;;1.70;;
20383;SDS011;46458;50.966;7.002;2023-08-06T12:07:46;3.90;;;2.23;;
20383;SDS011;46458;50.966;7.002;2023-08-06T12:10:19;7.00;;;2.23;;
20383;SDS011;46458;50.966;7.002;2023-08-06T12:12:49;5.33;;;2.10;;
20383;SDS011;46458;50.966;7.002;2023-08-06T12:15:18;4.07;;;1.70;;
20383;SDS011;46458;50.966;7.002;2023-08-06T12:17:46;2.67;;;1.80;;
20383;SDS011;46458;50.966;7.002;2023-08-06T12:20:15;2.63;;;1.70;;
20383;SDS011;46458;50.966;7.002;2023-08-06T12:22:47;3.40;;;1.80;;
20383;SDS011;46458;50.966;7.002;2023-08-06T12:25:22;4.97;;;1.83;;
20383;SDS011;46458;50.966;7.002;2023-08-06T12:27:50;4.17;;;1.90;;
20383;SDS011;46458;50.966;7.002;2023-08-06T12:30:19;2.73;;;1.60;;
20383;SDS011;46458;50.966;7.002;2023-08-06T12:32:48;2.20;;;1.37;;
20383;SDS011;46458;50.966;7.002;2023-08-06T12:35:24;7.93;;;1.70;;
20383;SDS011;46458;50.966;7.002;2023-08-06T12:37:53;3.70;;;1.50;;
20383;SDS011;46458;50.966;7.002;2023-08-06T12:40:25;2.93;;;1.43;;
20383;SDS011;46458;50.966;7.002;2023-08-06T12:42:54;1.83;;;1.30;;
20383;SDS011;46458;50.966;7.002;2023-08-06T12:45:24;3.87;;;1.40;;
20383;SDS011;46458;50.966;7.002;2023-08-06T12:47:53;4.67;;;1.70;;
20383;SDS011;46458;50.966;7.002;2023-08-06T12:50:26;2.47;;;1.50;;
20383;SDS011;46458;50.966;7.002;2023-08-06T12:52:55;2.60;;;1.67;;
20383;SDS011;46458;50.966;7.002;2023-08-06T12:55:26;4.37;;;1.50;;
20383;SDS011;46458;50.966;7.002;2023-08-06T12:57:55;5.13;;;2.83;;
20383;SDS011;46458;50.966;7.002;2023-08-06T13:00:24;6.57;;;2.40;;
20383;SDS011;46458;50.966;7.002;2023-08-06T13:02:53;8.20;;;3.90;;
20383;SDS011;46458;50.966;7.002;2023-08-06T13:05:21;4.83;;;2.70;;
20383;SDS011;46458;50.966;7.002;2023-08-06T13:07:53;4.50;;;2.30;;
20383;SDS011;46458;50.966;7.002;2023-08-06T13:10:22;4.17;;;2.03;;
20383;SDS011;46458;50.966;7.002;2023-08-06T13:12:54;3.78;;;1.63;;
20383;SDS011;46458;50.966;7.002;2023-08-06T13:15:23;3.67;;;1.70;;
20383;SDS011;46458;50.966;7.002;2023-08-06T13:17:52;3.67;;;1.80;;
20383;SDS011;46458;50.966;7.002;2023-08-06T13:20:20;3.37;;;1.67;;
20383;SDS011;46458;50.966;7.002;2023-08-06T13:22:49;4.23;;;2.03;;
20383;SDS011;46458;50.966;7.002;2023-08-06T13:25:19;4.75;;;2.17;;
20383;SDS011;46458;50.966;7.002;2023-08-06T13:27:51;5.50;;;2.20;;
20383;SDS011;46458;50.966;7.002;2023-08-06T13:30:20;4.87;;;2.17;;
20383;SDS011;46458;50.966;7.002;2023-08-06T13:32:48;2.53;;;1.90;;
20383;SDS011;46458;50.966;7.002;2023-08-06T13:35:17;4.57;;;1.83;;
20383;SDS011;46458;50.966;7.002;2023-08-06T13:37:46;5.55;;;2.17;;
20383;SDS011;46458;50.966;7.002;2023-08-06T13:40:15;3.57;;;1.87;;
20383;SDS011;46458;50.966;7.002;2023-08-06T13:42:47;4.23;;;2.30;;
20383;SDS011;46458;50.966;7.002;2023-08-06T13:45:18;2.60;;;2.07;;
20383;SDS011;46458;50.966;7.002;2023-08-06T13:47:47;3.47;;;1.90;;
20383;SDS011;46458;50.966;7.002;2023-08-06T13:50:16;3.28;;;2.03;;
20383;SDS011;46458;50.966;7.002;2023-08-06T13:52:47;4.68;;;2.22;;
20383;SDS011;46458;50.966;7.002;2023-08-06T13:55:16;3.13;;;2.15;;
20383;SDS011;46458;50.966;7.002;2023-08-06T13:57:45;7.10;;;4.53;;
20383;SDS011;46458;50.966;7.002;2023-08-06T14:00:13;7.00;;;5.45;;
20383;SDS011;46458;50.966;7.002;2023-08-06T14:02:45;5.47;;;3.65;;
20383;SDS011;46458;50.966;7.002;2023-08-06T14:05:14;3.65;;;2.40;;
20383;SDS011;46458;50.966;7.002;2023-08-06T14:07:45;3.45;;;2.30;;
20383;SDS011;46458;50.966;7.002;2023-08-06T14:10:14;3.38;;;2.45;;
20383;SDS011;46458;50.966;7.002;2023-08-06T14:12:43;2.65;;;2.25;;
20383;SDS011;46458;50.966;7.002;2023-08-06T14:15:22;3.65;;;2.40;;
20383;SDS011;46458;50.966;7.002;2023-08-06T14:17:54;3.85;;;2.20;;
20383;SDS011;46458;50.966;7.002;2023-08-06T14:20:23;3.78;;;2.55;;
20383;SDS011;46458;50.966;7.002;2023-08-06T14:22:51;3.67;;;2.15;;
20383;SDS011;46458;50.966;7.002;2023-08-06T14:25:20;3.17;;;1.77;;
20383;SDS011;46458;50.966;7.002;2023-08-06T14:27:50;3.58;;;2.20;;
20383;SDS011;46458;50.966;7.002;2023-08-06T14:30:18;4.00;;;1.48;;
20383;SDS011;46458;50.966;7.002;2023-08-06T14:32:47;3.72;;;2.08;;
20383;SDS011;46458;50.966;7.002;2023-08-06T14:35:21;3.08;;;1.40;;
20383;SDS011;46458;50.966;7.002;2023-08-06T14:37:50;4.93;;;1.85;;
20383;SDS011;46458;50.966;7.002;2023-08-06T14:40:19;3.40;;;1.50;;
20383;SDS011;46458;50.966;7.002;2023-08-06T14:42:48;4.47;;;1.33;;
20383;SDS011;46458;50.966;7.002;2023-08-06T14:45:17;5.43;;;1.40;;
20383;SDS011;46458;50.966;7.002;2023-08-06T14:47:46;2.35;;;1.20;;
20383;SDS011;46458;50.966;7.002;2023-08-06T14:50:14;4.43;;;1.40;;
20383;SDS011;46458;50.966;7.002;2023-08-06T14:52:49;1.83;;;1.30;;
20383;SDS011;46458;50.966;7.002;2023-08-06T14:55:29;2.88;;;1.38;;
20383;SDS011;46458;50.966;7.002;2023-08-06T14:57:58;3.55;;;1.50;;
20383;SDS011;46458;50.966;7.002;2023-08-06T15:00:29;4.93;;;1.73;;
20383;SDS011;46458;50.966;7.002;2023-08-06T15:02:57;3.70;;;1.60;;
20383;SDS011;46458;50.966;7.002;2023-08-06T15:05:26;3.15;;;1.55;;
20383;SDS011;46458;50.966;7.002;2023-08-06T15:07:58;3.00;;;1.60;;
20383;SDS011;46458;50.966;7.002;2023-08-06T15:10:27;4.68;;;1.50;;